createdAt,value
2023-05-05T00:00:47.898Z,62.05
2023-05-05T00:01:47.761Z,63.70
2023-05-05T00:02:47.960Z,62.79
2023-05-05T00:03:47.962Z,60.57
2023-05-05T00:04:47.792Z,62.59
2023-05-05T00:05:47.792Z,64.70
2023-05-05T00:06:47.963Z,61.47
2023-05-05T00:07:47.816Z,65.21
2023-05-05T00:08:47.628Z,61.88
2023-05-05T00:09:47.914Z,62.28
2023-05-05T00:10:47.575Z,62.08
2023-05-05T00:11:47.753Z,62.68
2023-05-05T00:12:47.993Z,63.49
2023-05-05T00:13:47.668Z,62.99
2023-05-05T00:14:47.825Z,62.88
2023-05-05T00:15:47.474Z,65.11
2023-05-05T00:16:47.704Z,62.18
2023-05-05T00:17:47.504Z,63.32
2023-05-05T00:18:47.572Z,65.04
2023-05-05T00:19:47.789Z,65.54
2023-05-05T00:20:47.799Z,65.64
2023-05-05T00:21:47.784Z,62.82
2023-05-05T00:22:47.584Z,61.20
2023-05-05T00:23:47.467Z,62.71
2023-05-05T00:24:47.544Z,61.98
2023-05-05T00:25:47.365Z,63.09
2023-05-05T00:26:47.569Z,61.57
2023-05-05T00:27:47.427Z,61.27
2023-05-05T00:28:47.628Z,63.46
2023-05-05T00:29:47.369Z,62.05
2023-05-05T00:30:47.490Z,61.14
2023-05-05T00:31:47.520Z,61.24
2023-05-05T00:32:47.634Z,61.55
2023-05-05T00:33:47.492Z,60.64
2023-05-05T00:34:47.456Z,60.51
2023-05-05T00:35:47.339Z,60.31
2023-05-05T00:36:47.277Z,60.71
2023-05-05T00:37:47.418Z,62.22
2023-05-05T00:38:47.404Z,63.23
2023-05-05T00:39:47.233Z,62.52
2023-05-05T00:40:47.257Z,62.76
2023-05-05T00:41:47.374Z,62.05
2023-05-05T00:42:47.245Z,62.05
2023-05-05T00:43:47.220Z,61.95
2023-05-05T00:44:47.226Z,63.46
2023-05-05T00:45:47.217Z,64.47
2023-05-05T00:46:47.501Z,63.16
2023-05-05T00:47:47.216Z,65.18
2023-05-05T00:48:47.186Z,63.39
2023-05-05T00:49:47.354Z,64.90
2023-05-05T00:50:47.271Z,64.61
2023-05-05T00:51:47.162Z,64.10
2023-05-05T00:52:47.140Z,65.51
2023-05-05T00:54:08.300Z,65.31
2023-05-05T00:54:47.156Z,66.25
2023-05-05T00:55:47.155Z,64.13
2023-05-05T00:56:47.116Z,66.25
2023-05-05T00:57:47.098Z,65.14
2023-05-05T00:58:47.062Z,65.67
2023-05-05T00:59:47.141Z,65.44
2023-05-05T01:00:47.200Z,65.54
2023-05-05T01:01:47.189Z,64.53
2023-05-05T01:02:47.158Z,65.34
2023-05-05T01:03:47.130Z,64.64
2023-05-05T01:04:47.121Z,65.21
2023-05-05T01:05:47.029Z,64.20
2023-05-05T01:06:47.067Z,65.11
2023-05-05T01:07:46.969Z,65.41
2023-05-05T01:08:46.935Z,66.62
2023-05-05T01:09:46.977Z,65.84
2023-05-05T01:10:46.995Z,64.84
2023-05-05T01:11:47.008Z,65.54
2023-05-05T01:12:46.966Z,65.95
2023-05-05T01:13:46.921Z,66.05
2023-05-05T01:14:46.941Z,66.65
2023-05-05T01:15:46.890Z,66.05
2023-05-05T01:16:46.899Z,65.44
2023-05-05T01:17:47.184Z,66.15
2023-05-05T01:18:47.028Z,65.84
2023-05-05T01:19:46.901Z,66.05
2023-05-05T01:20:47.058Z,65.95
2023-05-05T01:21:46.858Z,65.75
2023-05-05T01:22:46.916Z,67.97
2023-05-05T01:23:46.811Z,66.86
2023-05-05T01:24:47.014Z,65.95
2023-05-05T01:25:46.824Z,67.16
2023-05-05T01:26:47.146Z,66.15
2023-05-05T01:27:46.796Z,67.26
2023-05-05T01:28:46.932Z,68.47
2023-05-05T01:29:46.827Z,67.26
2023-05-05T01:30:46.823Z,68.98
2023-05-05T01:31:46.781Z,68.67
2023-05-05T01:32:46.865Z,67.69
2023-05-05T01:33:46.909Z,67.49
2023-05-05T01:34:47.018Z,68.30
2023-05-05T01:35:46.807Z,67.60
2023-05-05T01:36:47.089Z,67.69
2023-05-05T01:37:46.790Z,67.90
2023-05-05T01:38:46.675Z,68.91
2023-05-05T01:39:46.717Z,68.40
2023-05-05T01:40:46.633Z,67.80
2023-05-05T01:41:46.621Z,67.69
2023-05-05T01:42:46.639Z,68.20
2023-05-05T01:43:46.701Z,68.98
2023-05-05T01:44:47.027Z,68.17
2023-05-05T01:45:46.660Z,68.17
2023-05-05T01:46:46.941Z,69.18
2023-05-05T01:47:46.610Z,69.18
2023-05-05T01:48:46.586Z,71.33
2023-05-05T01:49:46.534Z,70.42
2023-05-05T01:50:46.730Z,69.51
2023-05-05T01:51:46.721Z,69.01
2023-05-05T01:52:46.576Z,71.37
2023-05-05T01:53:47.358Z,70.76
2023-05-05T01:54:47.213Z,71.97
2023-05-05T01:55:46.623Z,71.67
2023-05-05T01:56:46.702Z,72.11
2023-05-05T01:57:46.416Z,70.79
2023-05-05T01:58:46.518Z,71.20
2023-05-05T01:59:46.622Z,72.51
2023-05-05T02:00:46.440Z,72.04
2023-05-05T02:01:46.623Z,73.05
2023-05-05T02:02:46.994Z,71.73
2023-05-05T02:03:46.967Z,72.75
2023-05-05T02:04:46.558Z,72.14
2023-05-05T02:05:46.677Z,71.94
2023-05-05T02:06:46.520Z,73.05
2023-05-05T02:07:46.549Z,73.15
2023-05-05T02:08:46.379Z,74.37
2023-05-05T02:09:46.509Z,73.80
2023-05-05T02:10:46.593Z,73.59
2023-05-05T02:11:46.862Z,73.39
2023-05-05T02:12:46.530Z,74.10
2023-05-05T02:13:46.536Z,75.52
2023-05-05T02:14:46.680Z,74.91
2023-05-05T02:15:46.767Z,75.65
2023-05-05T02:16:46.342Z,75.04
2023-05-05T02:17:46.420Z,76.26
2023-05-05T02:18:46.411Z,76.87
2023-05-05T02:19:46.225Z,76.87
2023-05-05T02:20:46.894Z,77.28
2023-05-05T02:21:46.424Z,77.61
2023-05-05T02:22:46.597Z,77.92
2023-05-05T02:23:46.327Z,78.42
2023-05-05T02:24:46.177Z,79.03
2023-05-05T02:25:46.231Z,78.53
2023-05-05T02:26:46.674Z,78.83
2023-05-05T02:27:46.349Z,79.58
2023-05-05T02:28:46.628Z,79.47
2023-05-05T02:29:46.334Z,80.08
2023-05-05T02:30:46.265Z,79.17
2023-05-05T02:31:46.197Z,79.88
2023-05-05T02:32:46.151Z,79.88
2023-05-05T02:33:46.132Z,80.05
2023-05-05T02:34:46.353Z,80.35
2023-05-05T02:35:46.090Z,80.15
2023-05-05T02:36:46.051Z,80.05
2023-05-05T02:37:46.105Z,80.76
2023-05-05T02:38:46.124Z,80.76
2023-05-05T02:39:46.033Z,81.46
2023-05-05T02:40:46.040Z,81.06
2023-05-05T02:41:46.085Z,80.65
2023-05-05T02:42:46.182Z,81.57
2023-05-05T02:43:46.161Z,80.25
2023-05-05T02:44:45.990Z,80.15
2023-05-05T02:45:46.166Z,81.46
2023-05-05T02:46:46.301Z,82.07
2023-05-05T02:47:46.365Z,81.97
2023-05-05T02:48:45.961Z,81.06
2023-05-05T02:49:46.233Z,80.62
2023-05-05T02:50:45.962Z,80.72
2023-05-05T02:51:46.488Z,81.63
2023-05-05T02:52:45.928Z,81.12
2023-05-05T02:53:45.962Z,81.02
2023-05-05T02:54:46.150Z,81.23
2023-05-05T02:55:45.952Z,81.02
2023-05-05T02:56:45.997Z,80.62
2023-05-05T02:57:46.133Z,80.58
2023-05-05T02:58:45.927Z,80.98
2023-05-05T02:59:45.876Z,81.09
2023-05-05T03:00:46.853Z,81.39
2023-05-05T03:01:45.831Z,81.23
2023-05-05T03:02:45.983Z,81.93
2023-05-05T03:03:45.908Z,81.23
2023-05-05T03:04:45.942Z,81.32
2023-05-05T03:05:45.900Z,81.73
2023-05-05T03:06:45.744Z,81.43
2023-05-05T03:07:45.952Z,81.73
2023-05-05T03:08:45.766Z,81.90
2023-05-05T03:09:45.734Z,81.49
2023-05-05T03:10:45.698Z,81.90
2023-05-05T03:11:45.747Z,81.79
2023-05-05T03:12:45.732Z,81.69
2023-05-05T03:13:45.711Z,82.34
2023-05-05T03:14:45.710Z,82.54
2023-05-05T03:15:45.668Z,82.34
2023-05-05T03:16:45.947Z,83.35
2023-05-05T03:17:45.764Z,82.75
2023-05-05T03:18:45.627Z,83.69
2023-05-05T03:19:45.703Z,83.49
2023-05-05T03:20:45.587Z,83.80
2023-05-05T03:21:45.669Z,84.64
2023-05-05T03:22:45.914Z,84.64
2023-05-05T03:23:45.609Z,84.85
2023-05-05T03:24:45.621Z,85.09
2023-05-05T03:25:45.592Z,85.50
2023-05-05T03:26:45.679Z,85.60
2023-05-05T03:27:45.716Z,86.00
2023-05-05T03:28:45.792Z,86.15
2023-05-05T03:29:45.687Z,86.25
2023-05-05T03:30:45.813Z,86.76
2023-05-05T03:31:45.494Z,86.90
2023-05-05T03:32:45.589Z,87.20
2023-05-05T03:33:45.721Z,87.40
2023-05-05T03:34:45.723Z,87.95
2023-05-05T03:35:45.540Z,88.06
2023-05-05T03:36:45.606Z,88.06
2023-05-05T03:37:45.548Z,87.99
2023-05-05T03:38:45.504Z,88.50
2023-05-05T03:39:45.396Z,88.81
2023-05-05T03:40:45.439Z,89.11
2023-05-05T03:41:45.465Z,89.76
2023-05-05T03:42:45.623Z,89.97
2023-05-05T03:43:45.477Z,89.76
2023-05-05T03:44:45.434Z,90.48
2023-05-05T03:45:45.368Z,90.68
2023-05-05T03:46:45.318Z,90.27
2023-05-05T03:47:45.394Z,90.88
2023-05-05T03:48:45.540Z,90.68
2023-05-05T03:49:45.478Z,90.78
2023-05-05T03:50:45.490Z,90.88
2023-05-05T03:51:45.419Z,91.09
2023-05-05T03:52:45.375Z,90.99
2023-05-05T03:53:45.688Z,90.99
2023-05-05T03:54:45.379Z,90.58
2023-05-05T03:55:45.289Z,90.27
2023-05-05T03:56:45.708Z,90.27
2023-05-05T03:57:45.262Z,90.48
2023-05-05T03:58:45.228Z,90.37
2023-05-05T03:59:45.458Z,90.48
2023-05-05T04:00:45.263Z,90.88
2023-05-05T04:01:45.413Z,91.03
2023-05-05T04:02:45.675Z,91.33
2023-05-05T04:03:45.277Z,91.43
2023-05-05T04:04:45.257Z,91.84
2023-05-05T04:05:45.224Z,91.99
2023-05-05T04:06:45.125Z,91.88
2023-05-05T04:07:45.597Z,91.68
2023-05-05T04:08:45.526Z,92.40
2023-05-05T04:09:45.140Z,92.40
2023-05-05T04:10:45.125Z,92.70
2023-05-05T04:11:45.140Z,92.80
2023-05-05T04:12:45.176Z,93.05
2023-05-05T04:13:45.064Z,93.45
2023-05-05T04:14:45.171Z,93.86
2023-05-05T04:15:45.361Z,93.76
2023-05-05T04:16:45.299Z,93.66
2023-05-05T04:17:45.082Z,93.55
2023-05-05T04:18:45.056Z,93.66
2023-05-05T04:19:45.022Z,93.66
2023-05-05T04:20:45.057Z,93.45
2023-05-05T04:21:45.018Z,93.76
2023-05-05T04:22:45.050Z,93.76
2023-05-05T04:23:45.190Z,93.96
2023-05-05T04:24:44.978Z,94.07
2023-05-05T04:25:44.984Z,94.42
2023-05-05T04:26:45.011Z,94.82
2023-05-05T04:27:44.941Z,94.82
2023-05-05T04:28:44.914Z,94.57
2023-05-05T04:29:44.961Z,94.57
2023-05-05T04:30:45.056Z,94.52
2023-05-05T04:31:44.902Z,95.08
2023-05-05T04:32:44.933Z,95.29
2023-05-05T04:33:44.941Z,95.29
2023-05-05T04:34:44.870Z,95.08
2023-05-05T04:35:45.058Z,94.98
2023-05-05T04:36:44.975Z,94.88
2023-05-05T04:37:44.798Z,94.73
2023-05-05T04:38:45.118Z,94.57
2023-05-05T04:39:44.818Z,94.98
2023-05-05T04:40:44.779Z,95.04
2023-05-05T04:41:44.852Z,95.14
2023-05-05T04:42:44.777Z,94.93
2023-05-05T04:43:44.904Z,94.73
2023-05-05T04:44:44.798Z,94.59
2023-05-05T04:45:44.978Z,94.18
2023-05-05T04:46:44.764Z,94.18
2023-05-05T04:47:44.784Z,93.63
2023-05-05T04:48:44.714Z,93.22
2023-05-05T04:49:44.709Z,93.12
2023-05-05T04:50:44.733Z,92.71
2023-05-05T04:51:44.707Z,92.36
2023-05-05T04:52:44.894Z,92.26
2023-05-05T04:53:44.784Z,92.16
2023-05-05T04:54:44.742Z,91.86
2023-05-05T04:55:44.636Z,92.22
2023-05-05T04:56:44.668Z,91.71
2023-05-05T04:57:44.790Z,91.61
2023-05-05T04:58:44.872Z,91.51
2023-05-05T04:59:44.659Z,91.20
2023-05-05T05:00:44.596Z,91.82
2023-05-05T05:01:44.714Z,91.61
2023-05-05T05:02:44.858Z,91.30
2023-05-05T05:03:44.744Z,91.51
2023-05-05T05:04:44.658Z,91.71
2023-05-05T05:05:44.686Z,91.61
2023-05-05T05:06:44.727Z,91.51
2023-05-05T05:07:44.582Z,92.02
2023-05-05T05:08:44.855Z,92.12
2023-05-05T05:09:44.725Z,91.71
2023-05-05T05:10:44.823Z,91.71
2023-05-05T05:11:44.735Z,91.82
2023-05-05T05:12:44.476Z,91.82
2023-05-05T05:13:44.466Z,91.71
2023-05-05T05:14:44.786Z,91.56
2023-05-05T05:15:44.592Z,91.56
2023-05-05T05:16:44.766Z,91.47
2023-05-05T05:17:44.479Z,91.47
2023-05-05T05:18:44.553Z,91.36
2023-05-05T05:19:44.542Z,91.26
2023-05-05T05:20:44.402Z,91.06
2023-05-05T05:21:44.389Z,91.22
2023-05-05T05:22:44.583Z,91.52
2023-05-05T05:23:44.633Z,91.42
2023-05-05T05:24:44.488Z,90.81
2023-05-05T05:25:44.349Z,91.42
2023-05-05T05:26:44.477Z,91.32
2023-05-05T05:27:44.760Z,90.92
2023-05-05T05:28:44.284Z,90.71
2023-05-05T05:29:44.378Z,90.71
2023-05-05T05:30:44.508Z,91.02
2023-05-05T05:31:44.399Z,90.77
2023-05-05T05:32:44.310Z,90.77
2023-05-05T05:33:44.422Z,90.26
2023-05-05T05:34:44.386Z,90.77
2023-05-05T05:35:44.414Z,90.47
2023-05-05T05:36:44.478Z,90.16
2023-05-05T05:37:44.456Z,90.47
2023-05-05T05:38:44.379Z,90.73
2023-05-05T05:39:44.321Z,90.53
2023-05-05T05:40:44.456Z,90.53
2023-05-05T05:41:44.277Z,90.42
2023-05-05T05:42:44.340Z,90.02
2023-05-05T05:43:44.198Z,90.02
2023-05-05T05:44:44.346Z,89.81
2023-05-05T05:45:44.177Z,89.41
2023-05-05T05:46:44.323Z,89.37
2023-05-05T05:47:44.371Z,89.17
2023-05-05T05:48:44.134Z,89.57
2023-05-05T05:49:44.090Z,89.26
2023-05-05T05:50:44.315Z,88.96
2023-05-05T05:51:44.084Z,88.56
2023-05-05T05:52:44.080Z,89.17
2023-05-05T05:53:44.104Z,88.66
2023-05-05T05:54:44.058Z,88.82
2023-05-05T05:55:44.031Z,88.21
2023-05-05T05:56:44.369Z,88.01
2023-05-05T05:57:44.170Z,88.21
2023-05-05T05:58:44.460Z,88.11
2023-05-05T05:59:44.135Z,87.71
2023-05-05T06:00:43.968Z,87.36
2023-05-05T06:01:44.279Z,87.16
2023-05-05T06:02:44.050Z,87.46
2023-05-05T06:03:44.000Z,87.46
2023-05-05T06:04:44.004Z,86.65
2023-05-05T06:05:44.058Z,86.45
2023-05-05T06:06:43.958Z,86.41
2023-05-05T06:07:44.086Z,86.41
2023-05-05T06:08:44.171Z,86.41
2023-05-05T06:09:44.017Z,85.80
2023-05-05T06:10:44.009Z,85.80
2023-05-05T06:11:44.006Z,85.36
2023-05-05T06:12:44.106Z,85.36
2023-05-05T06:13:43.833Z,85.56
2023-05-05T06:14:43.849Z,84.95
2023-05-05T06:15:44.048Z,84.75
2023-05-05T06:16:43.806Z,84.65
2023-05-05T06:17:43.896Z,84.41
2023-05-05T06:18:43.770Z,84.31
2023-05-05T06:19:43.877Z,84.41
2023-05-05T06:20:43.792Z,84.20
2023-05-05T06:21:43.927Z,84.11
2023-05-05T06:22:43.845Z,83.70
2023-05-05T06:23:43.955Z,83.56
2023-05-05T06:24:43.947Z,83.66
2023-05-05T06:25:43.719Z,83.76
2023-05-05T06:26:43.977Z,82.95
2023-05-05T06:27:43.918Z,82.35
2023-05-05T06:28:43.981Z,82.45
2023-05-05T06:29:44.078Z,82.45
2023-05-05T06:30:43.703Z,82.75
2023-05-05T06:31:43.701Z,80.69
2023-05-05T06:32:43.880Z,80.59
2023-05-05T06:33:43.641Z,80.59
2023-05-05T06:34:43.842Z,80.69
2023-05-05T06:35:43.686Z,81.67
2023-05-05T06:36:43.689Z,80.76
2023-05-05T06:37:43.702Z,80.25
2023-05-05T06:38:43.754Z,80.41
2023-05-05T06:39:43.709Z,78.30
2023-05-05T06:40:43.915Z,78.90
2023-05-05T06:41:43.746Z,78.36
2023-05-05T06:42:43.607Z,77.55
2023-05-05T06:43:43.748Z,76.44
2023-05-05T06:44:43.655Z,76.54
2023-05-05T06:45:43.922Z,77.55
2023-05-05T06:46:43.680Z,78.02
2023-05-05T06:47:43.561Z,76.81
2023-05-05T06:48:43.640Z,77.11
2023-05-05T06:49:43.468Z,76.31
2023-05-05T06:50:43.615Z,75.10
2023-05-05T06:51:43.475Z,75.26
2023-05-05T06:52:43.473Z,76.27
2023-05-05T06:53:43.637Z,74.86
2023-05-05T06:54:43.585Z,76.17
2023-05-05T06:55:43.454Z,75.53
2023-05-05T06:56:43.432Z,76.64
2023-05-05T06:57:43.499Z,73.52
2023-05-05T06:58:43.684Z,74.52
2023-05-05T06:59:43.734Z,74.69
2023-05-05T07:00:43.409Z,75.70
2023-05-05T07:01:43.378Z,74.29
2023-05-05T07:02:43.407Z,72.54
2023-05-05T07:03:43.610Z,73.44
2023-05-05T07:04:43.345Z,72.44
2023-05-05T07:05:43.467Z,72.74
2023-05-05T07:06:43.497Z,73.61
2023-05-05T07:07:43.439Z,72.10
2023-05-05T07:08:43.306Z,71.30
2023-05-05T07:09:43.309Z,72.50
2023-05-05T07:10:43.296Z,72.71
2023-05-05T07:11:43.325Z,73.47
2023-05-05T07:12:43.313Z,73.18
2023-05-05T07:13:43.235Z,72.57
2023-05-05T07:14:43.235Z,71.97
2023-05-05T07:15:43.390Z,72.67
2023-05-05T07:16:43.311Z,72.07
2023-05-05T07:17:43.541Z,71.09
2023-05-05T07:18:43.182Z,71.09
2023-05-05T07:19:43.587Z,73.00
2023-05-05T07:20:43.416Z,72.00
2023-05-05T07:21:43.164Z,72.91
2023-05-05T07:22:43.379Z,72.50
2023-05-05T07:23:43.161Z,72.20
2023-05-05T07:24:43.083Z,72.71
2023-05-05T07:25:43.495Z,73.81
2023-05-05T07:26:43.189Z,73.61
2023-05-05T07:27:43.186Z,73.51
2023-05-05T07:28:43.258Z,72.61
2023-05-05T07:29:43.405Z,72.30
2023-05-05T07:30:43.075Z,72.71
2023-05-05T07:31:43.120Z,72.71
2023-05-05T07:32:43.286Z,72.91
2023-05-05T07:33:43.027Z,73.61
2023-05-05T07:34:43.211Z,73.11
2023-05-05T07:35:43.038Z,72.41
2023-05-05T07:36:43.012Z,73.61
2023-05-05T07:37:43.210Z,74.32
2023-05-05T07:38:42.967Z,74.28
2023-05-05T07:39:42.984Z,72.84
2023-05-05T07:40:42.977Z,72.40
2023-05-05T07:41:43.003Z,73.77
2023-05-05T07:42:43.070Z,72.77
2023-05-05T07:43:44.650Z,71.63
2023-05-05T07:44:42.968Z,69.92
2023-05-05T07:45:43.699Z,69.09
2023-05-05T07:46:43.100Z,69.22
2023-05-05T07:47:43.232Z,70.12
2023-05-05T07:48:42.971Z,69.62
2023-05-05T07:49:42.880Z,71.53
2023-05-05T07:50:43.062Z,70.03
2023-05-05T07:51:43.001Z,69.82
2023-05-05T07:52:48.409Z,70.43
2023-05-05T07:53:42.843Z,70.93
2023-05-05T07:54:42.787Z,69.73
2023-05-05T07:55:42.819Z,70.83
2023-05-05T07:56:42.817Z,71.73
2023-05-05T07:57:42.775Z,69.15
2023-05-05T07:58:42.795Z,70.36
2023-05-05T07:59:42.841Z,71.77
2023-05-05T08:00:42.855Z,71.86
2023-05-05T08:01:42.979Z,72.33
2023-05-05T08:02:42.817Z,70.89
2023-05-05T08:03:42.882Z,70.09
2023-05-05T08:04:42.897Z,69.49
2023-05-05T08:05:42.777Z,69.69
2023-05-05T08:06:43.688Z,68.89
2023-05-05T08:07:43.016Z,69.69
2023-05-05T08:08:42.788Z,70.56
2023-05-05T08:09:42.897Z,70.83
2023-05-05T08:10:42.656Z,69.93
2023-05-05T08:11:42.818Z,70.06
2023-05-05T08:12:43.036Z,67.52
2023-05-05T08:13:42.642Z,68.05
2023-05-05T08:14:42.637Z,66.66
2023-05-05T08:15:42.670Z,67.02
2023-05-05T08:16:42.840Z,66.82
2023-05-05T08:17:42.989Z,67.25
2023-05-05T08:18:42.759Z,66.69
2023-05-05T08:19:42.571Z,67.99
2023-05-05T08:20:42.808Z,67.36
2023-05-05T08:21:42.624Z,66.55
2023-05-05T08:22:42.729Z,66.09
2023-05-05T08:23:42.874Z,66.49
2023-05-05T08:24:42.633Z,65.86
2023-05-05T08:25:42.881Z,67.82
2023-05-05T08:26:42.647Z,67.16
2023-05-05T08:27:42.676Z,65.43
2023-05-05T08:28:42.473Z,63.90
2023-05-05T08:29:43.159Z,65.47
2023-05-05T08:30:42.608Z,63.24
2023-05-05T08:31:42.547Z,63.71
2023-05-05T08:32:42.756Z,62.18
2023-05-05T08:33:42.456Z,62.88
2023-05-05T08:34:42.422Z,60.69
2023-05-05T08:35:42.620Z,60.89
2023-05-05T08:36:42.650Z,61.02
2023-05-05T08:37:42.477Z,60.35
2023-05-05T08:38:42.467Z,61.80
2023-05-05T08:39:42.485Z,63.06
2023-05-05T08:40:42.460Z,64.93
2023-05-05T08:41:42.688Z,63.20
2023-05-05T08:42:42.395Z,62.90
2023-05-05T08:43:42.326Z,61.30
2023-05-05T08:44:42.544Z,63.30
2023-05-05T08:45:42.438Z,62.70
2023-05-05T08:46:42.541Z,61.63
2023-05-05T08:47:42.319Z,60.27
2023-05-05T08:48:42.285Z,62.43
2023-05-05T08:49:42.284Z,62.63
2023-05-05T08:50:42.498Z,62.40
2023-05-05T08:51:42.393Z,62.87
2023-05-05T08:52:42.313Z,62.74
2023-05-05T08:53:42.851Z,61.05
2023-05-05T08:54:42.345Z,63.11
2023-05-05T08:55:42.264Z,58.20
2023-05-05T08:56:42.209Z,59.77
2023-05-05T08:57:42.228Z,59.74
2023-05-05T08:58:42.247Z,59.81
2023-05-05T08:59:42.267Z,55.90
2023-05-05T09:00:42.198Z,55.38
2023-05-05T09:01:42.360Z,54.60
2023-05-05T09:02:42.419Z,57.54
2023-05-05T09:03:42.392Z,57.12
2023-05-05T09:04:42.115Z,59.08
2023-05-05T09:05:42.323Z,55.27
2023-05-05T09:06:42.520Z,55.47
2023-05-05T09:07:42.381Z,56.00
2023-05-05T09:08:42.115Z,56.77
2023-05-05T09:09:42.365Z,57.43
2023-05-05T09:10:42.288Z,55.82
2023-05-05T09:22:28.155Z,59.96
2023-05-05T09:23:08.214Z,60.73
2023-05-05T09:24:09.251Z,58.34
2023-05-05T09:25:08.289Z,60.80
2023-05-05T09:26:08.291Z,57.79
2023-05-05T09:27:08.925Z,56.67
2023-05-05T09:28:08.097Z,56.98
2023-05-05T09:29:08.116Z,53.88
2023-05-05T09:30:08.449Z,54.80
2023-05-05T09:31:08.129Z,52.34
2023-05-05T09:32:08.077Z,53.96
2023-05-05T09:33:08.210Z,55.25
2023-05-05T09:34:08.038Z,55.15
2023-05-05T09:35:08.305Z,57.51
2023-05-05T09:36:08.077Z,55.49
2023-05-05T09:37:08.229Z,53.78
2023-05-05T09:38:07.992Z,56.70
2023-05-05T09:39:08.156Z,55.58
2023-05-05T09:40:07.976Z,53.31
2023-05-05T09:41:08.202Z,51.77
2023-05-05T09:42:08.283Z,53.75
2023-05-05T09:43:07.970Z,51.62
2023-05-05T09:44:08.326Z,52.22
2023-05-05T09:45:08.504Z,53.99
2023-05-05T09:46:08.044Z,56.98
2023-05-05T09:47:22.061Z,59.23
2023-05-05T09:48:07.923Z,56.70
2023-05-05T09:49:07.925Z,57.46
2023-05-05T09:50:08.213Z,55.94
2023-05-05T09:51:08.136Z,55.44
2023-05-05T09:52:08.113Z,54.10
2023-05-05T09:53:08.083Z,54.70
2023-05-05T09:54:07.925Z,54.28
2023-05-05T09:55:07.943Z,55.64
2023-05-05T10:00:45.724Z,56.24
2023-05-05T10:01:46.934Z,55.91
2023-05-05T10:02:46.737Z,56.49
2023-05-05T10:03:47.003Z,53.58
2023-05-05T10:04:46.700Z,53.41
2023-05-05T10:05:46.696Z,55.27
2023-05-05T10:06:46.733Z,54.68
2023-05-05T10:07:46.744Z,57.29
2023-05-05T10:08:46.813Z,55.33
2023-05-05T10:09:46.784Z,55.55
2023-05-05T10:10:46.587Z,56.77
2023-05-05T10:11:46.771Z,58.87
2023-05-05T10:12:46.885Z,57.17
2023-05-05T10:13:46.545Z,59.34
2023-05-05T10:14:46.679Z,55.95
2023-05-05T10:15:46.597Z,55.93
2023-05-05T10:16:46.522Z,58.18
2023-05-05T10:18:02.234Z,56.47
2023-05-05T10:18:46.616Z,57.76
2023-05-05T10:19:46.609Z,56.94
2023-05-05T10:20:46.651Z,55.59
2023-05-05T10:21:46.847Z,54.63
2023-05-05T10:22:46.669Z,53.31
2023-05-05T10:23:46.661Z,55.52
2023-05-05T10:24:46.508Z,55.10
2023-05-05T10:25:46.464Z,53.31
2023-05-05T10:26:46.422Z,58.54
2023-05-05T10:27:46.616Z,50.76
2023-05-05T10:28:46.646Z,51.94
2023-05-05T10:29:46.560Z,54.60
2023-05-05T10:30:46.642Z,52.22
2023-05-05T10:31:46.562Z,54.20
2023-05-05T10:32:57.416Z,51.99
2023-05-05T10:33:46.540Z,54.64
2023-05-05T10:34:46.562Z,50.81
2023-05-05T10:35:46.668Z,49.86
2023-05-05T10:36:46.457Z,51.92
2023-05-05T10:37:46.360Z,54.68
2023-05-05T10:38:46.320Z,54.49
2023-05-05T10:39:46.330Z,51.13
2023-05-05T10:40:46.403Z,50.19
2023-05-05T10:41:46.527Z,47.72
2023-05-05T10:42:46.334Z,49.49
2023-05-05T10:43:46.287Z,49.05
2023-05-05T10:44:46.497Z,48.30
2023-05-05T10:45:46.403Z,50.38
2023-05-05T10:46:46.291Z,48.63
2023-05-05T10:47:46.607Z,50.56
2023-05-05T10:48:46.340Z,49.63
2023-05-05T10:49:46.257Z,52.96
2023-05-05T10:50:46.616Z,55.27
2023-05-05T10:51:46.502Z,57.64
2023-05-05T10:52:46.546Z,53.44
2023-05-05T10:53:46.212Z,51.05
2023-05-05T10:54:46.196Z,52.94
2023-05-05T10:55:46.206Z,53.23
2023-05-05T10:56:46.409Z,52.12
2023-05-05T10:57:46.655Z,52.02
2023-05-05T10:58:58.946Z,50.73
2023-05-05T10:59:46.303Z,50.73
2023-05-05T11:00:46.208Z,53.23
2023-05-05T11:01:46.151Z,51.87
2023-05-05T11:02:46.127Z,51.47
2023-05-05T11:03:46.530Z,53.49
2023-05-05T11:04:46.297Z,52.44
2023-05-05T11:05:46.119Z,53.76
2023-05-05T11:06:46.143Z,56.87
2023-05-05T11:07:46.257Z,58.07
2023-05-05T11:08:46.097Z,56.45
2023-05-05T11:09:46.146Z,55.16
2023-05-05T11:10:46.220Z,55.01
2023-05-05T11:11:46.254Z,56.40
2023-05-05T11:12:46.065Z,58.50
2023-05-05T11:13:46.003Z,57.28
2023-05-05T11:14:46.128Z,55.41
2023-05-05T11:15:46.246Z,56.01
2023-05-05T11:16:46.122Z,58.37
2023-05-05T11:17:46.115Z,55.71
2023-05-05T11:18:45.954Z,57.30
2023-05-05T11:19:46.072Z,55.51
2023-05-05T11:20:45.954Z,56.03
2023-05-05T11:21:45.980Z,58.92
2023-05-05T11:22:45.971Z,56.93
2023-05-05T11:23:46.096Z,55.73
2023-05-05T11:24:45.913Z,56.21
2023-05-05T11:25:45.976Z,55.51
2023-05-05T11:26:45.977Z,58.10
2023-05-05T11:27:46.188Z,58.10
2023-05-05T11:28:45.852Z,60.49
2023-05-05T11:29:46.004Z,55.91
2023-05-05T11:30:45.975Z,55.54
2023-05-05T11:31:46.016Z,55.04
2023-05-05T11:32:46.082Z,56.03
2023-05-05T11:33:45.940Z,57.76
2023-05-05T11:34:45.962Z,59.05
2023-05-05T11:35:45.998Z,57.46
2023-05-05T11:36:45.974Z,58.68
2023-05-05T11:37:45.789Z,59.88
2023-05-05T11:38:45.782Z,60.88
2023-05-05T11:39:46.019Z,60.71
2023-05-05T11:40:46.044Z,59.74
2023-05-05T11:41:45.769Z,61.24
2023-05-05T11:42:45.926Z,61.63
2023-05-05T11:43:45.722Z,60.77
2023-05-05T11:44:45.921Z,61.66
2023-05-05T11:45:45.746Z,62.09
2023-05-05T11:46:45.747Z,61.79
2023-05-05T11:47:46.648Z,63.19
2023-05-05T11:48:45.694Z,62.02
2023-05-05T11:49:45.822Z,63.12
2023-05-05T11:50:45.651Z,63.53
2023-05-05T11:51:45.756Z,62.25
2023-05-05T11:52:45.629Z,63.45
2023-05-05T11:53:45.603Z,64.18
2023-05-05T11:54:45.596Z,64.59
2023-05-05T11:55:45.825Z,65.59
2023-05-05T11:56:45.694Z,68.22
2023-05-05T11:57:45.659Z,68.26
2023-05-05T11:58:46.100Z,69.96
2023-05-05T11:59:46.749Z,73.10
2023-05-05T12:00:45.693Z,70.59
2023-05-05T12:01:45.523Z,71.63
2023-05-05T12:02:45.808Z,72.74
2023-05-05T12:03:46.214Z,72.17
2023-05-05T12:04:45.594Z,76.58
2023-05-05T12:05:45.499Z,77.83
2023-05-05T12:06:45.492Z,80.33
2023-05-05T12:07:45.504Z,80.37
2023-05-05T12:08:45.526Z,83.18
2023-05-05T12:09:46.078Z,81.52
2023-05-05T12:10:45.685Z,83.87
2023-05-05T12:11:46.151Z,84.47
2023-05-05T12:12:45.682Z,86.02
2023-05-05T12:13:45.462Z,87.63
2023-05-05T12:14:45.595Z,89.39
2023-05-05T12:15:45.697Z,89.08
2023-05-05T12:16:45.481Z,89.43
2023-05-05T12:17:45.569Z,91.69
2023-05-05T12:18:45.576Z,92.69
2023-05-05T12:19:45.581Z,92.90
2023-05-05T12:20:45.529Z,91.13
2023-05-05T12:21:45.857Z,92.33
2023-05-05T12:22:45.453Z,93.04
2023-05-05T12:23:45.519Z,91.17
2023-05-05T12:24:45.443Z,92.12
2023-05-05T12:25:45.325Z,94.59
2023-05-05T12:26:45.541Z,96.00
2023-05-05T12:27:45.436Z,97.25
2023-05-05T12:28:45.419Z,98.57
2023-05-05T12:29:45.702Z,98.87
2023-05-05T12:30:45.465Z,97.20
2023-05-05T12:31:45.656Z,98.61
2023-05-05T12:32:45.331Z,99.83
2023-05-05T12:33:45.392Z,99.99
2023-05-05T12:34:45.252Z,99.99
2023-05-05T12:35:45.251Z,99.99
2023-05-05T12:36:45.379Z,99.99
2023-05-05T12:37:45.538Z,99.99
2023-05-05T12:38:45.227Z,99.99
2023-05-05T12:39:45.433Z,99.99
2023-05-05T12:40:45.450Z,99.99
2023-05-05T12:41:45.235Z,99.99
2023-05-05T12:42:46.415Z,99.99
2023-05-05T12:43:45.422Z,99.99
2023-05-05T12:44:45.144Z,99.99
2023-05-05T12:45:45.296Z,99.99
2023-05-05T12:46:45.120Z,99.99
2023-05-05T12:47:45.201Z,99.99
2023-05-05T12:48:48.106Z,99.99
2023-05-05T12:49:45.100Z,99.99
2023-05-05T12:50:45.458Z,99.99
2023-05-05T12:51:46.222Z,99.99
2023-05-05T12:52:45.332Z,99.99
2023-05-05T12:53:45.053Z,99.99
2023-05-05T12:54:45.037Z,99.99
2023-05-05T12:55:45.054Z,99.99
2023-05-05T12:56:45.012Z,99.99
2023-05-05T12:57:46.781Z,99.99
2023-05-05T12:58:45.260Z,99.64
2023-05-05T12:59:45.234Z,99.89
2023-05-05T13:00:45.185Z,99.99
2023-05-05T13:01:45.070Z,99.39
2023-05-05T13:02:45.105Z,99.24
2023-05-05T13:03:44.980Z,96.42
2023-05-05T13:04:45.318Z,96.72
2023-05-05T13:05:45.027Z,97.08
2023-05-05T13:06:45.034Z,94.87
2023-05-05T13:07:45.038Z,91.89